createdAt,value
2023-02-24T00:02:04.944Z,9.00
2023-02-24T00:04:38.524Z,9.02
2023-02-24T00:07:07.760Z,9.01
2023-02-24T00:09:37.296Z,8.95
2023-02-24T00:12:09.183Z,9.01
2023-02-24T00:14:41.234Z,8.97
2023-02-24T00:17:14.644Z,9.00
2023-02-24T00:19:46.389Z,8.93
2023-02-24T00:22:14.970Z,8.92
2023-02-24T00:24:43.352Z,8.92
2023-02-24T00:27:12.416Z,8.87
2023-02-24T00:29:42.274Z,8.89
2023-02-24T00:32:13.484Z,8.83
2023-02-24T00:34:44.283Z,8.86
2023-02-24T00:37:15.484Z,8.82
2023-02-24T00:39:46.675Z,8.84
2023-02-24T00:42:15.061Z,8.85
2023-02-24T00:44:46.715Z,8.86
2023-02-24T00:47:18.587Z,8.86
2023-02-24T00:49:50.058Z,8.76
2023-02-24T00:52:21.150Z,8.87
2023-02-24T00:54:51.193Z,8.90
2023-02-24T00:57:21.427Z,8.86
2023-02-24T00:59:52.817Z,8.93
2023-02-24T01:02:21.444Z,8.88
2023-02-24T01:04:51.697Z,8.94
2023-02-24T01:07:20.099Z,8.98
2023-02-24T01:09:52.290Z,8.88
2023-02-24T01:12:38.097Z,8.92
2023-02-24T01:15:10.093Z,9.02
2023-02-24T01:17:40.919Z,9.00
2023-02-24T01:20:18.013Z,8.89
2023-02-24T01:22:49.528Z,8.84
2023-02-24T01:25:20.119Z,8.93
2023-02-24T01:27:48.880Z,8.79
2023-02-24T01:30:18.715Z,8.76
2023-02-24T01:32:48.429Z,8.79
2023-02-24T01:35:18.842Z,8.89
2023-02-24T01:37:47.213Z,8.77
2023-02-24T01:40:21.173Z,8.84
2023-02-24T01:42:50.851Z,8.81
2023-02-24T01:45:28.828Z,8.82
2023-02-24T01:48:02.367Z,8.87
2023-02-24T01:50:33.911Z,8.92
2023-02-24T01:53:06.507Z,8.90
2023-02-24T01:55:37.785Z,8.85
2023-02-24T01:58:14.069Z,8.97
2023-02-24T02:00:47.106Z,8.92
2023-02-24T02:03:25.331Z,8.91
2023-02-24T02:06:01.306Z,8.94
2023-02-24T02:08:30.734Z,8.96
2023-02-24T02:11:06.053Z,8.93
2023-02-24T02:13:38.104Z,8.94
2023-02-24T02:16:37.401Z,8.97
2023-02-24T02:19:55.492Z,9.16
2023-02-24T02:22:54.927Z,9.06
2023-02-24T02:25:35.164Z,9.02
2023-02-24T02:28:31.860Z,9.03
2023-02-24T02:31:58.539Z,9.09
2023-02-24T02:34:46.794Z,9.02
2023-02-24T02:37:25.450Z,9.07
2023-02-24T02:40:02.533Z,9.15
2023-02-24T02:42:41.098Z,9.22
2023-02-24T02:45:17.759Z,9.17
2023-02-24T02:47:53.996Z,9.02
2023-02-24T02:50:28.966Z,9.02
2023-02-24T02:53:01.120Z,9.07
2023-02-24T02:55:37.484Z,9.03
2023-02-24T02:58:10.655Z,9.02
2023-02-24T03:00:50.170Z,9.11
2023-02-24T03:03:20.667Z,9.13
2023-02-24T03:05:56.950Z,9.09
2023-02-24T03:08:30.752Z,9.00
2023-02-24T03:11:02.747Z,8.99
2023-02-24T03:13:37.847Z,8.96
2023-02-24T03:16:08.232Z,8.91
2023-02-24T03:18:42.059Z,8.95
2023-02-24T03:21:17.650Z,9.02
2023-02-24T03:23:50.691Z,9.08
2023-02-24T03:26:28.217Z,9.12
2023-02-24T03:29:06.637Z,9.17
2023-02-24T03:31:43.783Z,9.31
2023-02-24T03:34:17.241Z,9.32
2023-02-24T03:36:48.137Z,9.29
2023-02-24T03:39:18.007Z,9.22
2023-02-24T03:42:02.707Z,9.15
2023-02-24T03:44:33.867Z,9.11
2023-02-24T03:47:02.996Z,9.21
2023-02-24T03:49:32.370Z,9.19
2023-02-24T03:52:13.946Z,9.13
2023-02-24T03:55:03.159Z,9.10
2023-02-24T03:57:54.937Z,8.96
2023-02-24T04:00:38.599Z,8.96
2023-02-24T04:03:19.309Z,9.06
2023-02-24T04:06:02.520Z,9.09
2023-02-24T04:08:40.871Z,9.05
2023-02-24T04:11:16.964Z,9.06
2023-02-24T04:13:50.803Z,9.07
2023-02-24T04:16:29.117Z,8.95
2023-02-24T04:19:03.800Z,8.98
2023-02-24T04:21:35.820Z,8.92
2023-02-24T04:24:11.627Z,8.94
2023-02-24T04:26:43.210Z,8.80
2023-02-24T04:29:20.557Z,8.83
2023-02-24T04:31:53.341Z,8.87
2023-02-24T04:34:22.201Z,8.87
2023-02-24T04:36:51.636Z,8.83
2023-02-24T04:39:23.519Z,8.92
2023-02-24T04:41:57.682Z,8.86
2023-02-24T04:44:28.193Z,8.75
2023-02-24T04:46:57.184Z,8.82
2023-02-24T04:49:26.125Z,8.73
2023-02-24T04:51:57.132Z,8.63
2023-02-24T04:54:28.154Z,8.62
2023-02-24T04:56:58.380Z,8.59
2023-02-24T04:59:29.293Z,8.91
2023-02-24T05:02:01.468Z,9.28
2023-02-24T05:04:31.828Z,9.06
2023-02-24T05:07:00.590Z,9.22
2023-02-24T05:09:30.396Z,9.14
2023-02-24T05:12:00.327Z,9.24
2023-02-24T05:14:31.097Z,9.37
2023-02-24T05:17:00.523Z,9.45
2023-02-24T05:19:46.647Z,9.49
2023-02-24T05:22:17.545Z,9.46
2023-02-24T05:24:48.238Z,9.53
2023-02-24T05:27:17.452Z,9.24
2023-02-24T05:29:46.150Z,9.19
2023-02-24T05:32:16.761Z,9.09
2023-02-24T05:34:45.349Z,8.66
2023-02-24T05:37:16.709Z,8.53
2023-02-24T05:39:46.569Z,8.47
2023-02-24T05:42:15.351Z,8.62
2023-02-24T05:44:43.717Z,8.53
2023-02-24T05:47:12.175Z,8.59
2023-02-24T05:49:40.966Z,8.65
2023-02-24T05:52:11.323Z,8.46
2023-02-24T05:54:44.051Z,8.40
2023-02-24T05:57:17.141Z,8.38
2023-02-24T05:59:45.589Z,8.37
2023-02-24T06:02:16.916Z,8.35
2023-02-24T06:04:51.168Z,8.44
2023-02-24T06:07:24.862Z,8.36
2023-02-24T06:09:56.590Z,8.44
2023-02-24T06:12:29.399Z,8.45
2023-02-24T06:14:58.898Z,8.43
2023-02-24T06:17:29.214Z,8.39
2023-02-24T06:19:57.894Z,8.45
2023-02-24T06:22:28.098Z,8.38
2023-02-24T06:24:57.340Z,8.36
2023-02-24T06:27:27.114Z,8.35
2023-02-24T06:29:56.906Z,8.37
2023-02-24T06:32:28.042Z,8.32
2023-02-24T06:34:59.395Z,8.41
2023-02-24T06:37:28.320Z,8.37
2023-02-24T06:39:58.367Z,8.30
2023-02-24T06:42:28.241Z,8.23
2023-02-24T06:44:56.647Z,8.18
2023-02-24T06:47:25.385Z,8.26
2023-02-24T06:49:53.806Z,8.29
2023-02-24T06:52:22.149Z,8.40
2023-02-24T06:54:52.454Z,8.43
2023-02-24T06:57:20.922Z,8.35
2023-02-24T06:59:50.961Z,8.25
2023-02-24T07:02:19.362Z,8.17
2023-02-24T07:04:48.149Z,8.15
2023-02-24T07:07:17.411Z,8.21
2023-02-24T07:09:46.086Z,8.23
2023-02-24T07:12:20.853Z,8.28
2023-02-24T07:14:50.925Z,8.63
2023-02-24T07:17:20.042Z,8.79
2023-02-24T07:19:48.470Z,8.65
2023-02-24T07:22:17.600Z,8.71
2023-02-24T07:24:46.722Z,8.69
2023-02-24T07:27:23.190Z,8.76
2023-02-24T07:29:53.890Z,8.82
2023-02-24T07:32:23.414Z,8.88
2023-02-24T07:34:52.014Z,8.99
2023-02-24T07:37:21.102Z,9.08
2023-02-24T07:39:49.663Z,9.09
2023-02-24T07:42:18.006Z,9.03
2023-02-24T07:44:49.204Z,9.10
2023-02-24T07:47:21.445Z,9.09
2023-02-24T07:49:51.197Z,9.07
2023-02-24T07:52:19.543Z,9.06
2023-02-24T07:54:49.806Z,8.98
2023-02-24T07:57:18.994Z,8.83
2023-02-24T07:59:48.175Z,8.94
2023-02-24T08:02:18.642Z,8.98
2023-02-24T08:04:51.532Z,9.02
2023-02-24T08:07:24.986Z,9.01
2023-02-24T08:10:24.267Z,8.95
2023-02-24T08:12:55.902Z,9.18
2023-02-24T08:15:26.800Z,9.10
2023-02-24T08:18:00.551Z,9.18
2023-02-24T08:20:36.243Z,9.07
2023-02-24T08:23:08.641Z,9.09
2023-02-24T08:25:37.117Z,9.12
2023-02-24T08:28:11.708Z,9.11
2023-02-24T08:30:46.103Z,9.17
2023-02-24T08:33:22.068Z,9.18
2023-02-24T08:36:01.088Z,9.24
2023-02-24T08:38:42.002Z,9.19
2023-02-24T08:41:17.983Z,9.30
2023-02-24T08:43:48.118Z,9.40
2023-02-24T08:46:21.150Z,9.56
2023-02-24T08:49:01.337Z,9.54
2023-02-24T08:51:35.092Z,9.66
2023-02-24T08:54:10.952Z,9.64
2023-02-24T08:56:43.832Z,9.54
2023-02-24T08:59:29.209Z,9.54
2023-02-24T09:02:18.555Z,9.47
2023-02-24T09:04:51.427Z,9.55
2023-02-24T09:07:22.679Z,9.65
2023-02-24T09:09:56.268Z,9.53
2023-02-24T09:12:29.190Z,9.62
2023-02-24T09:15:01.223Z,9.62
2023-02-24T09:17:41.202Z,9.80
2023-02-24T09:20:32.874Z,9.73
2023-02-24T09:23:03.695Z,9.81
2023-02-24T09:25:44.783Z,9.85
2023-02-24T09:28:18.170Z,9.73
2023-02-24T09:30:53.508Z,9.81
2023-02-24T09:33:29.233Z,9.73
2023-02-24T09:36:10.620Z,9.55
2023-02-24T09:38:58.758Z,9.80
2023-02-24T09:41:34.586Z,9.92
2023-02-24T09:44:07.822Z,10.04
2023-02-24T09:46:53.985Z,10.06
2023-02-24T09:49:25.799Z,10.02
2023-02-24T09:52:00.646Z,10.22
2023-02-24T09:54:35.617Z,10.27
2023-02-24T09:57:16.791Z,10.22
2023-02-24T10:00:22.133Z,10.25
2023-02-24T10:03:00.247Z,10.31
2023-02-24T10:05:38.865Z,10.18
2023-02-24T10:08:17.869Z,10.16
2023-02-24T10:11:00.949Z,10.16
2023-02-24T10:13:33.306Z,10.14
2023-02-24T10:16:07.082Z,10.09
2023-02-24T10:18:44.703Z,10.33
2023-02-24T10:21:30.666Z,10.32
2023-02-24T10:24:15.468Z,10.57
2023-02-24T10:27:00.390Z,10.74
2023-02-24T10:29:47.962Z,10.92
2023-02-24T10:32:24.693Z,11.18
2023-02-24T10:34:54.011Z,11.26
2023-02-24T10:37:28.930Z,11.53
2023-02-24T10:40:09.773Z,12.43
2023-02-24T10:42:45.942Z,12.64
2023-02-24T10:45:23.682Z,12.08
2023-02-24T10:47:57.755Z,12.08
2023-02-24T10:50:32.611Z,11.72
2023-02-24T10:53:26.726Z,11.64
2023-02-24T10:56:15.380Z,11.14
2023-02-24T10:58:56.923Z,11.21
2023-02-24T11:01:43.815Z,11.42
2023-02-24T11:04:43.905Z,11.31
2023-02-24T11:07:24.744Z,11.32
2023-02-24T11:10:14.035Z,11.57
2023-02-24T11:13:10.396Z,11.84
2023-02-24T11:16:01.311Z,12.12
2023-02-24T11:18:31.760Z,11.96
2023-02-24T11:21:03.801Z,11.85
2023-02-24T11:23:43.170Z,11.91
2023-02-24T11:26:18.245Z,12.00
2023-02-24T11:29:01.087Z,11.72
2023-02-24T11:31:49.077Z,12.02
2023-02-24T11:34:27.640Z,12.05
2023-02-24T11:37:06.749Z,11.77
2023-02-24T11:39:53.163Z,11.82
2023-02-24T11:42:27.351Z,11.51
2023-02-24T11:45:03.882Z,11.59
2023-02-24T11:47:40.013Z,11.73
2023-02-24T11:50:29.184Z,11.53
2023-02-24T11:52:59.984Z,11.66
2023-02-24T11:55:38.870Z,11.67
2023-02-24T11:58:21.360Z,11.72
2023-02-24T12:00:58.235Z,11.45
2023-02-24T12:03:34.359Z,11.54
2023-02-24T12:06:16.486Z,11.71
2023-02-24T12:08:50.614Z,11.64
2023-02-24T12:11:32.963Z,11.41
2023-02-24T12:14:17.042Z,11.63
2023-02-24T12:16:55.620Z,11.57
2023-02-24T12:19:33.534Z,11.64
2023-02-24T12:22:09.947Z,11.60
2023-02-24T12:24:39.237Z,11.56
2023-02-24T12:27:21.972Z,11.52
2023-02-24T12:30:22.906Z,11.24
2023-02-24T12:33:08.546Z,11.29
2023-02-24T12:35:47.932Z,11.32
2023-02-24T12:38:35.561Z,11.20
2023-02-24T12:41:25.173Z,11.08
2023-02-24T12:44:00.180Z,10.76
2023-02-24T12:46:36.595Z,10.69
2023-02-24T12:49:48.178Z,10.95
2023-02-24T12:52:25.932Z,10.64
2023-02-24T12:55:06.575Z,10.85
2023-02-24T12:57:44.962Z,11.16
2023-02-24T13:00:27.468Z,10.86
2023-02-24T13:03:02.771Z,11.00
2023-02-24T13:05:41.061Z,10.86
2023-02-24T13:08:24.496Z,11.01
2023-02-24T13:11:05.390Z,10.90
2023-02-24T13:13:41.440Z,10.96
2023-02-24T13:16:13.475Z,10.99
2023-02-24T13:18:42.200Z,11.01
2023-02-24T13:21:23.352Z,11.04
2023-02-24T13:23:58.339Z,10.88
2023-02-24T13:26:29.172Z,10.65
2023-02-24T13:29:03.346Z,10.83
2023-02-24T13:31:44.734Z,10.66
2023-02-24T13:34:31.732Z,10.57
2023-02-24T13:37:02.677Z,10.53
2023-02-24T13:39:36.894Z,10.36
2023-02-24T13:42:18.239Z,10.31
2023-02-24T13:44:53.749Z,10.48
2023-02-24T13:47:47.627Z,10.70
2023-02-24T13:50:25.603Z,10.63
2023-02-24T13:53:33.338Z,10.69
2023-02-24T13:56:21.413Z,10.60
2023-02-24T13:59:21.383Z,10.60
2023-02-24T14:01:52.702Z,10.59
2023-02-24T14:04:27.306Z,10.60
2023-02-24T14:07:01.472Z,10.27
2023-02-24T14:09:36.209Z,10.40
2023-02-24T14:12:09.883Z,10.36
2023-02-24T14:14:38.487Z,10.27
2023-02-24T14:17:06.878Z,10.24
2023-02-24T14:19:35.218Z,10.28
2023-02-24T14:22:04.019Z,10.36
2023-02-24T14:24:33.877Z,10.11
2023-02-24T14:27:03.909Z,10.13
2023-02-24T14:29:43.866Z,10.05
2023-02-24T14:32:21.958Z,9.97
2023-02-24T14:34:51.247Z,10.03
2023-02-24T14:37:26.033Z,9.95
2023-02-24T14:39:58.347Z,10.01
2023-02-24T14:42:28.193Z,9.90
2023-02-24T14:44:59.912Z,9.92
2023-02-24T14:47:32.151Z,9.91
2023-02-24T14:50:02.687Z,9.89
2023-02-24T14:52:37.278Z,9.62
2023-02-24T14:55:13.624Z,9.68
2023-02-24T14:57:50.536Z,9.63
2023-02-24T15:00:24.307Z,9.73
2023-02-24T15:03:02.197Z,9.78
2023-02-24T15:05:30.625Z,9.57
2023-02-24T15:08:00.613Z,9.71
2023-02-24T15:10:32.504Z,9.73
2023-02-24T15:13:09.106Z,9.72
2023-02-24T15:15:39.628Z,9.66
2023-02-24T15:18:15.669Z,9.73
2023-02-24T15:20:44.284Z,9.66
2023-02-24T15:23:28.108Z,9.55
2023-02-24T15:25:57.849Z,9.62
2023-02-24T15:28:31.087Z,9.46
2023-02-24T15:31:08.520Z,9.38
2023-02-24T15:33:41.629Z,9.73
2023-02-24T15:36:19.569Z,9.47
2023-02-24T15:38:53.132Z,9.35
2023-02-24T15:41:23.373Z,9.35
2023-02-24T15:43:56.126Z,9.52
2023-02-24T15:46:30.500Z,9.82
2023-02-24T15:49:03.165Z,9.46
2023-02-24T15:51:38.648Z,9.39
2023-02-24T15:54:12.918Z,9.29
2023-02-24T15:56:43.947Z,9.59
2023-02-24T15:59:16.465Z,9.45
2023-02-24T16:01:45.051Z,9.42
2023-02-24T16:04:13.509Z,9.40
2023-02-24T16:06:54.442Z,9.30
2023-02-24T16:09:33.541Z,9.17
2023-02-24T16:12:06.816Z,9.12
2023-02-24T16:14:35.569Z,9.40
2023-02-24T16:17:09.063Z,9.36
2023-02-24T16:19:38.155Z,9.06
2023-02-24T16:22:06.493Z,8.97
2023-02-24T16:24:35.223Z,9.02
2023-02-24T16:27:06.205Z,8.96
2023-02-24T16:29:34.596Z,8.84
2023-02-24T16:32:03.285Z,8.85
2023-02-24T16:34:31.933Z,8.84
2023-02-24T16:37:00.386Z,8.80
2023-02-24T16:39:29.459Z,8.61
2023-02-24T16:41:59.367Z,8.70
2023-02-24T16:44:29.097Z,8.56
2023-02-24T16:46:57.477Z,8.36
2023-02-24T16:49:25.846Z,8.29
2023-02-24T16:51:54.212Z,8.13
2023-02-24T16:54:23.458Z,8.08
2023-02-24T16:56:52.181Z,8.14
2023-02-24T16:59:20.658Z,8.00
2023-02-24T17:01:50.778Z,7.95
2023-02-24T17:04:19.349Z,7.95
2023-02-24T17:06:48.165Z,7.91
2023-02-24T17:09:18.020Z,7.85
2023-02-24T17:11:46.786Z,7.78
2023-02-24T17:14:18.753Z,7.55
2023-02-24T17:16:49.074Z,7.50
2023-02-24T17:19:17.790Z,7.40
2023-02-24T17:21:46.671Z,7.42
2023-02-24T17:24:18.211Z,7.47
2023-02-24T17:26:47.352Z,7.70
2023-02-24T17:29:17.762Z,7.55
2023-02-24T17:31:46.588Z,7.72
2023-02-24T17:34:16.502Z,7.53
2023-02-24T17:36:44.803Z,7.41
2023-02-24T17:39:14.051Z,7.41
2023-02-24T17:41:42.468Z,7.45
2023-02-24T17:44:10.925Z,7.40
2023-02-24T17:46:39.404Z,7.29
2023-02-24T17:49:07.948Z,7.42
2023-02-24T17:51:37.725Z,7.40
2023-02-24T17:54:06.849Z,7.30
2023-02-24T17:56:35.361Z,7.21
2023-02-24T17:59:03.740Z,7.12
2023-02-24T18:01:32.093Z,7.36
2023-02-24T18:04:00.461Z,7.16
2023-02-24T18:06:28.926Z,7.38
2023-02-24T18:08:58.666Z,6.97
2023-02-24T18:11:27.043Z,7.09
2023-02-24T18:14:00.373Z,6.91
2023-02-24T18:16:32.212Z,7.20
2023-02-24T18:19:00.638Z,7.05
2023-02-24T18:21:29.006Z,7.36
2023-02-24T18:23:58.840Z,7.08
2023-02-24T18:26:27.354Z,7.19
2023-02-24T18:28:56.611Z,7.05
2023-02-24T18:31:27.725Z,6.76
2023-02-24T18:33:58.061Z,6.84
2023-02-24T18:36:27.485Z,6.86
2023-02-24T18:38:59.180Z,6.88
2023-02-24T18:41:27.965Z,6.78
2023-02-24T18:43:59.274Z,7.12
2023-02-24T18:46:28.722Z,6.89
2023-02-24T18:48:57.690Z,6.84
2023-02-24T18:51:29.979Z,6.72
2023-02-24T18:54:01.560Z,7.10
2023-02-24T18:56:32.365Z,6.85
2023-02-24T18:59:02.360Z,6.86
2023-02-24T19:01:34.375Z,6.86
2023-02-24T19:04:04.535Z,6.72
2023-02-24T19:06:33.994Z,6.81
2023-02-24T19:09:07.308Z,6.97
2023-02-24T19:11:36.196Z,7.06
2023-02-24T19:14:05.345Z,7.00
2023-02-24T19:16:34.109Z,6.89
2023-02-24T19:19:02.995Z,6.69
2023-02-24T19:21:33.265Z,6.60
2023-02-24T19:24:03.917Z,7.10
2023-02-24T19:26:32.391Z,6.68
2023-02-24T19:29:01.076Z,6.78
2023-02-24T19:31:32.614Z,6.69
2023-02-24T19:34:03.918Z,6.67
2023-02-24T19:36:35.277Z,6.80
2023-02-24T19:39:06.182Z,7.10
2023-02-24T19:41:34.551Z,6.94
2023-02-24T19:44:03.072Z,6.81
2023-02-24T19:46:34.064Z,7.03
2023-02-24T19:49:03.184Z,6.82
2023-02-24T19:51:32.137Z,6.85
2023-02-24T19:54:06.007Z,6.84
2023-02-24T19:56:36.955Z,7.02
2023-02-24T19:59:08.512Z,6.80
2023-02-24T20:01:36.963Z,7.11
2023-02-24T20:04:06.007Z,7.04
2023-02-24T20:06:37.111Z,7.20
2023-02-24T20:09:09.754Z,6.97
2023-02-24T20:11:39.522Z,6.85
2023-02-24T20:14:08.912Z,6.96
2023-02-24T20:16:39.106Z,6.80
2023-02-24T20:19:12.515Z,6.72
2023-02-24T20:21:41.836Z,6.65
2023-02-24T20:24:15.114Z,6.85
2023-02-24T20:26:47.050Z,6.96
2023-02-24T20:29:24.143Z,6.94
2023-02-24T20:31:53.179Z,6.78
2023-02-24T20:34:24.390Z,7.00
2023-02-24T20:36:52.979Z,6.79
2023-02-24T20:39:26.873Z,6.74
2023-02-24T20:41:55.356Z,6.89
2023-02-24T20:44:24.606Z,6.70
2023-02-24T20:46:55.270Z,6.95
2023-02-24T20:49:24.161Z,6.81
2023-02-24T20:51:52.590Z,6.91
2023-02-24T20:54:23.942Z,6.96
2023-02-24T20:56:52.386Z,6.69
2023-02-24T20:59:24.173Z,6.81
2023-02-24T21:01:52.944Z,6.79
2023-02-24T21:04:22.779Z,6.72
2023-02-24T21:06:52.138Z,6.57
2023-02-24T21:09:21.981Z,6.76
2023-02-24T21:11:50.452Z,6.82
2023-02-24T21:14:19.642Z,6.77
2023-02-24T21:16:48.018Z,6.66
2023-02-24T21:19:17.888Z,6.67
2023-02-24T21:21:46.461Z,6.47
2023-02-24T21:24:14.879Z,6.53
2023-02-24T21:26:44.744Z,6.67
2023-02-24T21:29:13.310Z,6.59
2023-02-24T21:31:41.888Z,6.94
2023-02-24T21:34:12.128Z,6.76
2023-02-24T21:36:40.514Z,6.72
2023-02-24T21:39:08.940Z,6.64
2023-02-24T21:41:37.378Z,6.58
2023-02-24T21:44:07.237Z,6.46
2023-02-24T21:46:36.116Z,6.37
2023-02-24T21:49:04.828Z,6.55
2023-02-24T21:51:33.521Z,6.46
2023-02-24T21:54:02.005Z,6.69
2023-02-24T21:56:31.525Z,6.49
2023-02-24T21:59:02.552Z,6.40
2023-02-24T22:01:35.237Z,6.55
2023-02-24T22:04:05.899Z,6.76
2023-02-24T22:06:37.199Z,6.78
2023-02-24T22:09:08.690Z,6.45
2023-02-24T22:11:41.741Z,6.35
2023-02-24T22:14:11.791Z,6.47
2023-02-24T22:16:42.148Z,6.57
2023-02-24T22:19:11.045Z,6.52
2023-02-24T22:21:42.295Z,6.61
2023-02-24T22:24:14.987Z,6.40
2023-02-24T22:26:44.326Z,6.27
2023-02-24T22:29:13.193Z,6.23
2023-02-24T22:31:44.060Z,6.39
2023-02-24T22:34:14.172Z,6.14
2023-02-24T22:36:42.758Z,6.18
2023-02-24T22:39:12.764Z,6.14
2023-02-24T22:41:41.130Z,6.25
2023-02-24T22:44:11.053Z,5.91
2023-02-24T22:46:40.218Z,6.06
2023-02-24T22:49:09.964Z,6.08
2023-02-24T22:51:38.519Z,5.96
2023-02-24T22:54:07.637Z,6.10
2023-02-24T22:56:37.944Z,6.02
2023-02-24T22:59:06.604Z,6.01
2023-02-24T23:01:37.719Z,6.02
2023-02-24T23:04:12.852Z,5.80
2023-02-24T23:06:41.723Z,5.78
2023-02-24T23:09:10.771Z,6.20
2023-02-24T23:11:41.974Z,6.01
2023-02-24T23:14:13.947Z,5.94
2023-02-24T23:16:46.534Z,5.75
2023-02-24T23:19:18.530Z,5.73
2023-02-24T23:21:49.751Z,5.58
2023-02-24T23:24:19.614Z,5.90
2023-02-24T23:26:53.827Z,5.49
2023-02-24T23:29:24.162Z,5.59
2023-02-24T23:31:53.435Z,5.61
2023-02-24T23:34:23.336Z,5.77
2023-02-24T23:36:51.757Z,5.62
2023-02-24T23:39:23.908Z,5.58
2023-02-24T23:41:57.545Z,5.67
2023-02-24T23:44:26.466Z,5.65
2023-02-24T23:46:55.022Z,5.79
2023-02-24T23:49:29.407Z,5.86
2023-02-24T23:52:04.763Z,5.81
2023-02-24T23:54:33.240Z,5.88
2023-02-24T23:57:01.748Z,5.78
2023-02-24T23:59:30.223Z,5.92
